aviador You're here:

YPPH Decoded Metar

PERTH in AUSTRALIA
Report Time2018-04-24 02:30:00
UTC Time2018-04-24 02:49:58
Flight Rules vfr VFR
Wind060° at 06 kt
W.Decomp.*RWY 06: 6.0 kt HW 0.2 kt RCW
RWY 03: 5.1 kt HW 3.2 kt RCW
W.Rank060° ranks 8
Current wind is below 060° avg. (9.4)
Visibility9999 m
Phenomena:N/A
Clouds:N/A
Expected CloudBase > 4,000 ft AGL from Temp-Dew spread
CeilingNone
Temp20°C (ISA +5)
Dew Point10°C (53% RH)
AAT17.9°C
QNH1021 hPa
Density Alt535 ft
Elevation43 ft
Report Wrong Elevation
Raw Report
YPPH 240230Z 06006KT CAVOK 20/10 Q1021 NOSIG=

Extra information for YPPH:More info

Metar Taf Metar & Taf Last 4 Metars F.Rules Stats Wind Profile Meteogram Temp Stats Airport Information Weather charts Add Link Nearby VenuesMetar ALERT Operation Metar Decoded Social comments